KTTD/TTD METAR and TAF weather

Enter ICAO airport designator
Station Type Date Time Source
KTTD METAR 2019/12/06 08:53 UTC NOAA

KTTD 060853Z AUTO 10022G27KT 10SM CLR 07/02 A2995 RMK AO2 PK WND 09029/0806 SLP143 T00720017 56003


Station Type Date Time Source
KTTD Decoded METAR 2019/12/06 08:53 UTC NOAA

PORTLAND-TROUTDALE AIRPORT, OR, United States (KTTD) 45-33N 122-25W 14M
Dec 06, 2019 - 03:53 AM EST / 2019.12.06 0853 UTC
Wind: from the E (100 degrees) at 25 MPH (22 KT) gusting to 31 MPH (27 KT):0
Visibility: 10 mile(s):0
Sky conditions: clear
Temperature: 45.0 F (7.2 C)
Dew Point: 35.1 F (1.7 C)
Relative Humidity: 68%
Pressure (altimeter): 29.95 in. Hg (1014 hPa)
Pressure tendency: 0.01 inches (0.3 hPa) lower than three hours ago
ob: KTTD 060853Z AUTO 10022G27KT 10SM CLR 07/02 A2995 RMK AO2 PK WND 09029/0806 SLP143 T00720017 56003
cycle: 9

Station Type Date Time Source
KTTD TAF 2019/12/06 06:34 UTC NOAA

TAF KTTD 060531Z 0606/0706 09020G27KT P6SM BKN250
FM061900 09016G23KT P6SM OVC100
FM062300 09017G24KT P6SM OVC050

Example: see airport list